• Join FlightAware (Why Join?)
  • Login
  • US Flag 
08:15PM EDT


 

Airport Tracker/Info


-or-


 

Live Flight TrackerFlight Track Log ✈ N508SB ✈ 30-Apr-2013 ✈ KFNT - KVLL

Flight Track Log - Related Links

Times and Time Zones

All times are in EDT time to prevent confusion due to time zone crossing. See the N508SB flight status page for this flight to view local times or setup timezone preferences in your user account.

Time Position Orientation Groundspeed Altitude Reporting Facility
EDT Latitude Longitude Course Direction KTS MPH feet Rate Location/Type
03:11PM 42.8889 -83.7856 277° West 167 192 3,500  Level Cleveland Center
03:12PM 42.8953 -83.8508 278° West 172 198 4,400 960 Climbing Cleveland Center
03:13PM 42.9022 -83.9053 280° West 156 180 5,500 1,140 Climbing Cleveland Center
03:14PM 42.9092 -83.9536 281° West 143 165 6,700 1,140 Climbing Cleveland Center
03:15PM 42.9119 -83.9936 275° West 130 150 7,800 1,140 Climbing Cleveland Center
03:16PM 42.9735 -83.9744 277° West  Level FlightAware Approximate
03:16PM 42.9169 -84.0364 279° West 125 144 9,000  Level Cleveland Center
03:17PM 42.9779 -84.0226 277° West  Level FlightAware Approximate
03:17PM 42.9200 -84.0792 276° West 125 144 10,100  Level Cleveland Center
03:18PM 42.9269 -84.1222 282° West 125 144 11,300 1,140 Climbing Cleveland Center
03:19PM 42.9297 -84.1647 275° West 125 144 12,500 1,200 Climbing Cleveland Center
03:20PM 42.9369 -84.2050 284° West 125 144 13,700 1,140 Climbing Cleveland Center
03:21PM 42.9419 -84.2450 280° West 125 144 14,800 1,140 Climbing Cleveland Center
03:22PM 42.9447 -84.2847 275° West 125 144 16,000 600 Climbing Cleveland Center
03:23PM 42.9536 -84.3364 283° West 130 150 16,000  Level Cleveland Center
03:24PM 42.9614 -84.3869 282° West 160 184 16,000  Level Chicago Center
03:25PM 42.9683 -84.4467 279° West 160 184 16,000  Level Chicago Center
03:26PM 42.9753 -84.5047 279° West 157 181 16,000  Level Chicago Center
03:27PM 42.9822 -84.5614 280° West 153 176 16,000  Level Chicago Center
03:28PM 42.9886 -84.6194 279° West 155 178 16,000  Level Chicago Center
03:29PM 42.9964 -84.6767 281° West 155 178 16,100  Climbing Chicago Center
03:30PM 43.0031 -84.7444 278° West 151 174 16,100  Level Chicago Center
03:31PM 43.0111 -84.8042 280° West 159 183 16,100  Level Chicago Center
03:32PM 43.0181 -84.8631 279° West 158 182 16,100  Level Chicago Center
03:33PM 43.0242 -84.9231 278° West 160 184 16,100 -240 Level Chicago Center
03:34PM 42.9797 -84.9297 186° South 208 239 15,700 -300 Descending Chicago Center
03:35PM 42.9556 -84.8497 112° Southeast 228 262 15,500 -660 Descending Chicago Center
03:36PM 42.9292 -84.7406 108° East 249 287 14,400 -900 Descending Chicago Center
03:37PM 42.9072 -84.6497 108° East 252 290 13,700 -720 Descending Chicago Center
03:38PM 42.8867 -84.5614 108° East 247 284 13,000 -780 Descending Chicago Center
03:39PM 42.8644 -84.4747 109° East 243 280 12,200 -780 Descending Chicago Center
03:40PM 42.8433 -84.3919 109° East 247 284 11,500 -660 Descending Cleveland Center
03:41PM 42.8211 -84.3058 109° East 242 278 11,000 -660 Descending Cleveland Center
03:42PM 42.8119 -84.2628 106° East 234 269 10,600 -720 Descending Cleveland Center
03:42PM 42.7986 -84.2222 114° Southeast 237 273 10,300 -720 Descending Cleveland Center
03:43PM 42.7808 -84.1308 105° East 232 267 9,500 -780 Descending Cleveland Center
03:44PM 42.7603 -84.0533 110° East 230 265 8,800 -720 Descending Cleveland Center
03:45PM 42.7436 -83.9789 107° East 224 258 8,200 -660 Descending Cleveland Center
03:46PM 42.7250 -83.9042 109° East 219 252 7,600 -720 Descending Cleveland Center
03:47PM 42.7044 -83.8211 109° East 215 247 6,800 -660 Descending Cleveland Center
03:48PM 42.6875 -83.7553 109° East 209 241 6,300 -600 Descending Cleveland Center
03:49PM 42.6669 -83.6697 108° East 203 234 5,600 -660 Descending Cleveland Center
03:50PM 42.6497 -83.6067 110° East 200 230 5,000 -600 Descending Cleveland Center
03:51PM 42.6308 -83.5322 109° East 187 215 4,400 -540 Descending Cleveland Center
03:53PM 42.6139 -83.4581 107° East 177 204 3,800 -540 Descending Cleveland Center
03:54PM 42.5986 -83.4011 110° East 166 191 3,300 -240 Descending Cleveland Center
03:55PM 42.5900 -83.3331 100° East 159 183 3,300 60 Level Cleveland Center
03:56PM 42.5994 -83.2797 76° East 159 183 3,500 120 Climbing Cleveland Center
03:57PM 42.6114 -83.2211 75° East 157 181 3,600 -120 Climbing Cleveland Center
03:58PM 42.6064 -83.1672 97° East 144 166 3,300 -660 Descending Cleveland Center
03:59PM 42.5642 -83.1825 195° South 144 166 2,300 -540 Descending Cleveland Center
04:00PM 42.5286 -83.1894 188° South 112 129 2,200 -180 Descending Cleveland Center
04:01PM 42.5275 -83.1500 92° East 94 108 2,000 -600 Descending Cleveland Center
04:02PM 42.5439 -83.1592 338° Northwest 90 104 1,100 -900 Descending Cleveland Center
04:04PM 42.5333 -83.1667 324° Northwest  Level FlightAware Approximate
04:11PM 42.5429 -83.1779 324° Northwest  Level Estimated